createdAt,value
2023-05-10T00:00:10.117Z,7.07
2023-05-10T00:02:43.409Z,5.90
2023-05-10T00:05:10.173Z,9.15
2023-05-10T00:07:36.848Z,8.25
2023-05-10T00:10:03.338Z,7.65
2023-05-10T00:12:29.753Z,10.32
2023-05-10T00:14:56.189Z,11.68
2023-05-10T00:17:22.620Z,6.90
2023-05-10T00:19:49.243Z,8.98
2023-05-10T00:22:15.749Z,6.97
2023-05-10T00:24:42.187Z,9.25
2023-05-10T00:27:08.814Z,7.28
2023-05-10T00:29:35.383Z,8.20
2023-05-10T00:32:01.883Z,8.75
2023-05-10T00:34:28.394Z,8.23
2023-05-10T00:36:54.905Z,7.93
2023-05-10T00:39:21.477Z,7.55
2023-05-10T00:41:48.001Z,8.18
2023-05-10T00:44:15.564Z,8.63
2023-05-10T00:46:42.806Z,8.02
2023-05-10T00:49:09.313Z,9.70
2023-05-10T00:51:36.098Z,6.63
2023-05-10T00:54:03.594Z,6.13
2023-05-10T00:56:30.824Z,9.35
2023-05-10T00:58:57.938Z,10.65
2023-05-10T01:01:24.433Z,9.65
2023-05-10T01:03:52.133Z,7.03
2023-05-10T01:06:18.679Z,9.60
2023-05-10T01:08:45.550Z,7.70
2023-05-10T01:11:12.092Z,8.63
2023-05-10T01:13:41.869Z,9.90
2023-05-10T01:16:09.153Z,10.82
2023-05-10T01:18:45.472Z,8.88
2023-05-10T01:21:39.210Z,10.00
2023-05-10T01:24:22.957Z,9.25
2023-05-10T01:27:09.046Z,9.10
2023-05-10T01:30:15.874Z,8.43
2023-05-10T01:33:16.786Z,6.95
2023-05-10T01:35:52.732Z,7.85
2023-05-10T01:38:29.710Z,10.18
2023-05-10T01:41:09.011Z,9.80
2023-05-10T01:43:46.528Z,6.30
2023-05-10T01:46:21.513Z,7.80
2023-05-10T01:48:52.370Z,8.55
2023-05-10T01:51:23.909Z,7.65
2023-05-10T01:53:52.571Z,9.10
2023-05-10T01:56:24.967Z,8.65
2023-05-10T01:58:53.816Z,8.85
2023-05-10T02:01:22.379Z,9.43
2023-05-10T02:03:52.092Z,8.95
2023-05-10T02:06:20.978Z,7.07
2023-05-10T02:08:48.784Z,9.23
2023-05-10T02:11:15.287Z,7.07
2023-05-10T02:13:44.461Z,9.23
2023-05-10T02:16:13.501Z,7.72
2023-05-10T02:18:42.017Z,9.32
2023-05-10T02:21:09.311Z,8.73
2023-05-10T02:23:39.796Z,7.30
2023-05-10T02:26:07.343Z,8.73
2023-05-10T02:28:36.073Z,9.82
2023-05-10T02:31:03.430Z,8.65
2023-05-10T02:33:32.423Z,6.90
2023-05-10T02:35:59.950Z,7.25
2023-05-10T02:38:27.749Z,8.00
2023-05-10T02:40:55.457Z,8.05
2023-05-10T02:43:24.237Z,8.98
2023-05-10T02:45:50.899Z,6.60
2023-05-10T02:48:17.834Z,7.28
2023-05-10T02:50:46.278Z,8.20
2023-05-10T02:53:20.041Z,7.30
2023-05-10T02:56:02.757Z,8.50
2023-05-10T02:58:29.195Z,8.25
2023-05-10T03:00:55.778Z,8.07
2023-05-10T03:03:22.262Z,7.25
2023-05-10T03:05:50.924Z,9.32
2023-05-10T03:08:17.453Z,10.98
2023-05-10T03:11:02.790Z,7.88
2023-05-10T03:13:37.242Z,7.78
2023-05-10T03:16:11.003Z,8.30
2023-05-10T03:19:17.712Z,8.82
2023-05-10T03:21:50.811Z,7.63
2023-05-10T03:24:20.858Z,8.48
2023-05-10T03:26:50.735Z,7.80
2023-05-10T03:29:19.297Z,8.27
2023-05-10T03:31:46.461Z,7.78
2023-05-10T03:34:14.190Z,8.60
2023-05-10T03:36:41.345Z,10.13
2023-05-10T03:39:07.789Z,10.68
2023-05-10T03:41:34.268Z,9.10
2023-05-10T03:44:00.800Z,6.53
2023-05-10T03:46:28.894Z,6.60
2023-05-10T03:48:55.491Z,10.77
2023-05-10T03:51:22.194Z,7.53
2023-05-10T03:53:48.712Z,6.82
2023-05-10T03:56:15.230Z,8.32
2023-05-10T03:58:41.668Z,8.52
2023-05-10T04:01:08.095Z,7.70
2023-05-10T04:03:36.496Z,8.38
2023-05-10T04:06:03.610Z,8.27
2023-05-10T04:08:30.151Z,8.23
2023-05-10T04:11:08.478Z,6.30
2023-05-10T04:13:35.058Z,6.65
2023-05-10T04:16:01.828Z,8.02
2023-05-10T04:18:28.414Z,7.35
2023-05-10T04:20:54.888Z,9.57
2023-05-10T04:23:21.366Z,8.40
2023-05-10T04:25:47.927Z,7.03
2023-05-10T04:28:14.312Z,8.82
2023-05-10T04:30:41.456Z,8.50
2023-05-10T04:33:08.061Z,7.65
2023-05-10T04:35:35.505Z,10.68
2023-05-10T04:38:02.001Z,8.48
2023-05-10T04:40:28.462Z,7.95
2023-05-10T04:42:55.373Z,8.70
2023-05-10T04:45:21.837Z,10.15
2023-05-10T04:47:48.314Z,10.25
2023-05-10T04:50:15.053Z,8.25
2023-05-10T04:52:41.693Z,10.48
2023-05-10T04:55:10.484Z,9.23
2023-05-10T04:57:36.904Z,7.30
2023-05-10T05:00:03.900Z,9.23
2023-05-10T05:02:30.588Z,8.88
2023-05-10T05:04:58.785Z,9.30
2023-05-10T05:07:25.229Z,7.55
2023-05-10T05:09:51.684Z,7.60
2023-05-10T05:12:18.174Z,7.85
2023-05-10T05:14:44.646Z,7.47
2023-05-10T05:17:11.144Z,9.13
2023-05-10T05:19:37.840Z,9.25
2023-05-10T05:22:04.302Z,9.45
2023-05-10T05:24:35.992Z,7.47
2023-05-10T05:27:02.394Z,8.70
2023-05-10T05:29:28.828Z,6.60
2023-05-10T05:31:55.695Z,8.02
2023-05-10T05:34:23.040Z,9.68
2023-05-10T05:36:49.530Z,6.50
2023-05-10T05:39:16.059Z,7.40
2023-05-10T05:41:43.326Z,10.65
2023-05-10T05:44:09.916Z,9.15
2023-05-10T05:46:36.322Z,7.82
2023-05-10T05:49:02.863Z,7.95
2023-05-10T05:51:29.323Z,7.45
2023-05-10T05:53:56.219Z,8.73
2023-05-10T05:56:25.340Z,9.13
2023-05-10T05:58:52.272Z,9.55
2023-05-10T06:01:18.736Z,9.13
2023-05-10T06:03:45.439Z,7.60
2023-05-10T06:06:12.002Z,9.57
2023-05-10T06:08:38.762Z,11.80
2023-05-10T06:11:05.420Z,6.45
2023-05-10T06:13:33.068Z,8.18
2023-05-10T06:15:59.900Z,6.75
2023-05-10T06:18:26.569Z,8.45
2023-05-10T06:20:53.253Z,7.55
2023-05-10T06:23:19.667Z,6.18
2023-05-10T06:25:46.170Z,13.48
2023-05-10T06:28:12.652Z,10.55
2023-05-10T06:30:39.350Z,6.90
2023-05-10T06:33:05.855Z,9.80
2023-05-10T06:35:34.287Z,8.57
2023-05-10T06:38:00.979Z,9.60
2023-05-10T06:40:27.646Z,8.32
2023-05-10T06:42:54.071Z,6.40
2023-05-10T06:45:20.897Z,7.35
2023-05-10T06:47:47.639Z,7.75
2023-05-10T06:50:14.096Z,6.95
2023-05-10T06:52:40.622Z,11.98
2023-05-10T06:55:07.675Z,7.53
2023-05-10T06:57:34.125Z,7.07
2023-05-10T07:00:00.829Z,5.65
2023-05-10T07:02:27.502Z,7.47
2023-05-10T07:04:54.369Z,7.55
2023-05-10T07:07:20.861Z,8.45
2023-05-10T07:09:47.383Z,6.78
2023-05-10T07:12:15.351Z,7.13
2023-05-10T07:14:42.984Z,6.90
2023-05-10T07:17:09.731Z,6.47
2023-05-10T07:19:36.852Z,6.75
2023-05-10T07:22:03.514Z,6.85
2023-05-10T07:24:30.007Z,7.68
2023-05-10T07:26:56.430Z,6.95
2023-05-10T07:29:23.282Z,8.20
2023-05-10T07:31:49.735Z,7.00
2023-05-10T07:34:16.207Z,6.70
2023-05-10T07:36:42.702Z,6.65
2023-05-10T07:39:09.305Z,7.63
2023-05-10T07:41:36.277Z,8.55
2023-05-10T07:44:02.767Z,6.15
2023-05-10T07:46:29.508Z,7.72
2023-05-10T07:48:56.517Z,5.63
2023-05-10T07:51:23.176Z,6.68
2023-05-10T07:53:49.752Z,9.75
2023-05-10T07:56:32.773Z,7.53
2023-05-10T07:59:01.083Z,7.80
2023-05-10T08:01:31.469Z,8.88
2023-05-10T08:03:57.965Z,7.15
2023-05-10T08:06:24.737Z,7.55
2023-05-10T08:08:51.629Z,7.47
2023-05-10T08:11:18.517Z,9.30
2023-05-10T08:13:45.863Z,8.55
2023-05-10T08:16:12.376Z,7.25
2023-05-10T08:18:39.909Z,7.88
2023-05-10T08:21:06.863Z,7.60
2023-05-10T08:23:33.650Z,9.13
2023-05-10T08:26:00.898Z,9.70
2023-05-10T08:28:28.022Z,8.00
2023-05-10T08:30:54.448Z,8.18
2023-05-10T08:33:20.962Z,6.80
2023-05-10T08:35:47.413Z,11.30
2023-05-10T08:38:13.880Z,7.10
2023-05-10T08:40:45.143Z,7.93
2023-05-10T08:43:13.509Z,9.32
2023-05-10T08:45:42.452Z,7.80
2023-05-10T08:48:12.695Z,8.45
2023-05-10T08:50:40.936Z,8.85
2023-05-10T08:53:11.979Z,8.10
2023-05-10T08:55:39.725Z,8.77
2023-05-10T08:58:07.396Z,10.90
2023-05-10T09:00:34.331Z,8.13
2023-05-10T09:03:01.477Z,10.00
2023-05-10T09:05:28.432Z,6.88
2023-05-10T09:07:54.911Z,9.63
2023-05-10T09:10:21.842Z,7.72
2023-05-10T09:12:49.954Z,6.88
2023-05-10T09:15:17.617Z,9.05
2023-05-10T09:17:45.339Z,7.65
2023-05-10T09:20:11.845Z,9.77
2023-05-10T09:22:38.859Z,8.98
2023-05-10T09:25:13.379Z,9.13
2023-05-10T09:27:41.285Z,8.05
2023-05-10T09:30:08.733Z,7.93
2023-05-10T09:32:46.452Z,5.70
2023-05-10T09:35:18.531Z,7.97
2023-05-10T09:37:48.546Z,7.45
2023-05-10T09:40:20.414Z,8.32
2023-05-10T09:42:55.743Z,7.78
2023-05-10T09:45:23.860Z,9.27
2023-05-10T09:47:50.597Z,8.10
2023-05-10T09:50:17.231Z,6.47
2023-05-10T09:52:47.976Z,8.57
2023-05-10T09:55:14.800Z,8.32
2023-05-10T09:57:41.944Z,7.03
2023-05-10T10:00:10.934Z,8.25
2023-05-10T10:02:41.256Z,7.13
2023-05-10T10:05:08.236Z,9.15
2023-05-10T10:07:35.853Z,8.27
2023-05-10T10:10:03.432Z,7.00
2023-05-10T10:12:30.000Z,6.40
2023-05-10T10:14:57.097Z,6.15
2023-05-10T10:17:28.575Z,6.95
2023-05-10T10:19:56.399Z,6.75
2023-05-10T10:22:22.819Z,9.05
2023-05-10T10:24:49.661Z,7.35
2023-05-10T10:27:34.397Z,7.80
2023-05-10T10:30:27.239Z,7.22
2023-05-10T10:33:27.987Z,9.70
2023-05-10T10:35:59.093Z,6.72
2023-05-10T10:38:25.627Z,7.43
2023-05-10T10:41:37.581Z,8.27
2023-05-10T10:44:23.153Z,8.25
2023-05-10T10:47:25.050Z,6.80
2023-05-10T10:49:53.543Z,7.32
2023-05-10T10:52:30.697Z,8.18
2023-05-10T10:55:19.249Z,7.53
2023-05-10T10:58:01.567Z,9.40
2023-05-10T11:00:32.891Z,8.57
2023-05-10T11:02:59.471Z,8.63
2023-05-10T11:05:28.613Z,8.10
2023-05-10T11:07:57.276Z,9.23
2023-05-10T11:10:25.521Z,8.60
2023-05-10T11:12:54.049Z,7.38
2023-05-10T11:15:21.471Z,9.48
2023-05-10T11:17:52.957Z,10.30
2023-05-10T11:20:23.869Z,10.70
2023-05-10T11:22:54.249Z,8.05
2023-05-10T11:25:21.290Z,7.97
2023-05-10T11:27:51.170Z,9.68
2023-05-10T11:30:18.521Z,9.60
2023-05-10T11:32:45.660Z,6.57
2023-05-10T11:35:12.815Z,8.00
2023-05-10T11:37:44.595Z,10.80
2023-05-10T11:40:11.645Z,7.65
2023-05-10T11:42:39.783Z,9.20
2023-05-10T11:45:07.055Z,9.30
2023-05-10T11:47:33.569Z,9.82
2023-05-10T11:50:01.097Z,8.70
2023-05-10T11:52:27.563Z,9.60
2023-05-10T11:54:55.140Z,9.85
2023-05-10T11:57:26.601Z,8.88
2023-05-10T11:59:58.194Z,8.88
2023-05-10T12:02:24.946Z,10.65
2023-05-10T12:04:52.254Z,9.48
2023-05-10T12:07:19.039Z,8.73
2023-05-10T12:09:46.103Z,8.15
2023-05-10T12:12:18.512Z,9.68
2023-05-10T12:14:45.001Z,9.32
2023-05-10T12:17:14.515Z,9.70
2023-05-10T12:19:41.928Z,11.68
2023-05-10T12:22:08.433Z,7.65
2023-05-10T12:24:36.467Z,8.10
2023-05-10T12:27:06.812Z,7.35
2023-05-10T12:29:33.253Z,7.88
2023-05-10T12:32:00.871Z,9.95
2023-05-10T12:34:32.351Z,7.63
2023-05-10T12:37:00.832Z,8.60
2023-05-10T12:39:27.295Z,9.32
2023-05-10T12:41:54.188Z,9.35
2023-05-10T12:44:20.724Z,9.07
2023-05-10T12:46:47.158Z,9.25
2023-05-10T12:49:13.589Z,9.30
2023-05-10T12:51:40.048Z,8.52
2023-05-10T12:54:06.858Z,8.02
2023-05-10T12:56:33.272Z,9.07
2023-05-10T12:58:59.692Z,8.05
2023-05-10T13:01:26.170Z,10.70
2023-05-10T13:03:52.734Z,7.60
2023-05-10T13:06:19.214Z,10.45
2023-05-10T13:08:45.927Z,8.88
2023-05-10T13:11:12.653Z,8.60
2023-05-10T13:13:39.136Z,7.90
2023-05-10T13:16:05.912Z,7.07
2023-05-10T13:18:32.406Z,6.88
2023-05-10T13:20:58.845Z,7.88
2023-05-10T13:23:25.287Z,8.23
2023-05-10T13:25:51.732Z,6.97
2023-05-10T13:28:18.191Z,7.05
2023-05-10T13:30:44.643Z,8.07
2023-05-10T13:33:11.256Z,8.38
2023-05-10T13:35:37.704Z,7.53
2023-05-10T13:38:04.159Z,6.07
2023-05-10T13:40:30.611Z,5.75
2023-05-10T13:42:57.162Z,5.80
2023-05-10T13:45:23.651Z,6.00
2023-05-10T13:47:50.411Z,5.88
2023-05-10T13:50:17.802Z,6.28
2023-05-10T13:52:44.300Z,6.78
2023-05-10T13:55:13.247Z,6.38
2023-05-10T13:57:39.717Z,5.65
2023-05-10T14:00:06.932Z,5.85
2023-05-10T14:02:34.483Z,6.70
2023-05-10T14:05:01.105Z,5.28
2023-05-10T14:07:27.564Z,4.95
2023-05-10T14:09:54.007Z,5.10
2023-05-10T14:12:20.422Z,4.25
2023-05-10T14:14:46.992Z,5.03
2023-05-10T14:17:13.427Z,5.45
2023-05-10T14:19:40.392Z,5.47
2023-05-10T14:22:06.985Z,5.18
2023-05-10T14:24:33.594Z,4.63
2023-05-10T14:26:59.985Z,5.43
2023-05-10T14:29:26.421Z,6.53
2023-05-10T14:31:52.968Z,4.53
2023-05-10T14:34:19.482Z,4.57
2023-05-10T14:36:45.919Z,6.10
2023-05-10T14:39:13.735Z,4.22
2023-05-10T14:41:42.406Z,5.20
2023-05-10T14:44:08.931Z,4.00
2023-05-10T14:46:36.044Z,4.15
2023-05-10T14:49:02.674Z,6.03
2023-05-10T14:51:29.125Z,4.00
2023-05-10T14:53:55.569Z,3.35
2023-05-10T14:56:22.496Z,3.72
2023-05-10T14:58:50.592Z,5.38
2023-05-10T15:01:17.258Z,5.10
2023-05-10T15:03:44.044Z,3.60
2023-05-10T15:06:11.567Z,3.88
2023-05-10T15:08:38.005Z,3.38
2023-05-10T15:11:04.473Z,4.95
2023-05-10T15:13:31.982Z,3.95
2023-05-10T15:15:58.435Z,4.75
2023-05-10T15:18:25.049Z,3.85
2023-05-10T15:20:51.541Z,3.85
2023-05-10T15:23:17.983Z,4.45
2023-05-10T15:25:44.533Z,3.25
2023-05-10T15:28:10.935Z,5.18
2023-05-10T15:30:37.355Z,2.85
2023-05-10T15:33:03.843Z,4.78
2023-05-10T15:35:30.793Z,5.10
2023-05-10T15:37:57.194Z,4.63
2023-05-10T15:40:23.904Z,3.47
2023-05-10T15:42:50.355Z,4.03
2023-05-10T15:45:17.333Z,4.30
2023-05-10T15:47:45.031Z,4.10
2023-05-10T15:50:12.485Z,5.10
2023-05-10T15:52:38.898Z,3.83
2023-05-10T15:55:12.478Z,4.57
2023-05-10T15:57:40.380Z,5.38
2023-05-10T16:00:09.098Z,5.63
2023-05-10T16:02:39.989Z,3.53
2023-05-10T16:05:07.094Z,4.10
2023-05-10T16:07:34.092Z,4.68
2023-05-10T16:10:03.974Z,5.40
2023-05-10T16:12:31.430Z,3.83
2023-05-10T16:14:58.005Z,3.80
2023-05-10T16:17:24.560Z,4.72
2023-05-10T16:19:51.258Z,4.70
2023-05-10T16:22:17.939Z,6.30
2023-05-10T16:24:44.408Z,4.05
2023-05-10T16:27:12.484Z,3.80
2023-05-10T16:29:39.154Z,3.78
2023-05-10T16:32:05.762Z,3.33
2023-05-10T16:34:32.371Z,3.67
2023-05-10T16:36:58.810Z,4.97
2023-05-10T16:39:25.241Z,3.47
2023-05-10T16:41:51.637Z,3.85
2023-05-10T16:44:19.661Z,4.28
2023-05-10T16:46:47.214Z,4.68
2023-05-10T16:49:13.937Z,3.47
2023-05-10T16:51:40.882Z,4.05
2023-05-10T16:54:07.658Z,3.97
2023-05-10T16:56:34.081Z,3.13
2023-05-10T16:59:00.629Z,3.30
2023-05-10T17:01:27.276Z,3.85
2023-05-10T17:03:53.956Z,3.17
2023-05-10T17:06:20.439Z,2.85
2023-05-10T17:08:46.988Z,3.05
2023-05-10T17:11:13.736Z,2.85
2023-05-10T17:13:40.195Z,3.45
2023-05-10T17:16:07.074Z,3.78
2023-05-10T17:18:33.562Z,3.30
2023-05-10T17:21:00.383Z,4.82
2023-05-10T17:23:27.005Z,3.28
2023-05-10T17:25:53.693Z,2.42
2023-05-10T17:28:20.561Z,5.03
2023-05-10T17:30:47.118Z,2.58
2023-05-10T17:33:13.590Z,2.63
2023-05-10T17:35:40.053Z,2.80
2023-05-10T17:38:06.473Z,2.80
2023-05-10T17:40:32.878Z,2.53
2023-05-10T17:42:59.332Z,2.83
2023-05-10T17:45:26.387Z,3.33
2023-05-10T17:47:52.843Z,3.83
2023-05-10T17:50:19.667Z,3.60
2023-05-10T17:52:46.398Z,2.72
2023-05-10T17:55:13.251Z,2.97
2023-05-10T17:57:39.694Z,3.50
2023-05-10T18:00:08.702Z,3.05
2023-05-10T18:02:36.799Z,3.25
2023-05-10T18:05:04.488Z,3.20
2023-05-10T18:07:31.358Z,2.97
2023-05-10T18:09:58.071Z,3.53
2023-05-10T18:12:24.889Z,3.92
2023-05-10T18:14:51.529Z,2.90
2023-05-10T18:17:18.292Z,3.38
2023-05-10T18:19:44.688Z,3.05
2023-05-10T18:22:11.317Z,3.20
2023-05-10T18:24:41.014Z,2.35
2023-05-10T18:27:11.255Z,3.05
2023-05-10T18:29:37.956Z,3.92
2023-05-10T18:32:04.744Z,5.07
2023-05-10T18:34:31.239Z,2.58
2023-05-10T18:36:57.973Z,3.30
2023-05-10T18:39:24.990Z,5.20
2023-05-10T18:41:51.619Z,3.72
2023-05-10T18:44:18.923Z,4.95
2023-05-10T18:46:45.569Z,2.53
2023-05-10T18:49:12.013Z,2.85
2023-05-10T18:51:38.410Z,3.28
2023-05-10T18:54:04.884Z,3.45
2023-05-10T18:56:31.363Z,3.35
2023-05-10T18:58:57.775Z,4.18
2023-05-10T19:01:24.236Z,2.90
2023-05-10T19:03:50.699Z,4.93
2023-05-10T19:06:17.099Z,3.60
2023-05-10T19:08:43.592Z,3.00
2023-05-10T19:11:10.006Z,3.97
2023-05-10T19:13:36.631Z,2.25
2023-05-10T19:16:12.526Z,2.42
2023-05-10T19:18:39.893Z,2.05
2023-05-10T19:21:10.392Z,2.63
2023-05-10T19:23:41.819Z,4.50
2023-05-10T19:26:09.488Z,2.17
2023-05-10T19:28:36.051Z,2.40
2023-05-10T19:31:02.481Z,2.85
2023-05-10T19:33:29.309Z,2.58
2023-05-10T19:35:56.186Z,4.00
2023-05-10T19:38:23.667Z,3.10
2023-05-10T19:40:50.628Z,3.70
2023-05-10T19:43:17.229Z,3.90
2023-05-10T19:45:43.739Z,3.60
2023-05-10T19:48:10.490Z,2.38
2023-05-10T19:50:38.038Z,4.07
2023-05-10T19:53:04.471Z,4.63
2023-05-10T19:55:32.085Z,4.15
2023-05-10T19:58:00.626Z,3.40
2023-05-10T20:00:27.644Z,4.13
2023-05-10T20:02:54.669Z,3.28
2023-05-10T20:05:21.862Z,3.38
2023-05-10T20:07:48.814Z,5.38
2023-05-10T20:10:16.557Z,4.13
2023-05-10T20:12:50.897Z,4.00
2023-05-10T20:15:21.717Z,4.18
2023-05-10T20:17:50.859Z,3.20
2023-05-10T20:20:18.125Z,3.95
2023-05-10T20:22:44.852Z,3.70
2023-05-10T20:25:11.456Z,4.13
2023-05-10T20:27:37.910Z,3.17
2023-05-10T20:30:06.054Z,3.75
2023-05-10T20:32:32.620Z,3.67
2023-05-10T20:34:59.069Z,3.03
2023-05-10T20:37:27.286Z,3.55
2023-05-10T20:39:54.347Z,3.25
2023-05-10T20:42:22.090Z,3.75
2023-05-10T20:44:49.491Z,2.53
2023-05-10T20:47:16.737Z,3.47
2023-05-10T20:49:43.612Z,2.75
2023-05-10T20:52:10.082Z,3.47
2023-05-10T20:54:36.567Z,3.50
2023-05-10T20:57:03.162Z,3.05
2023-05-10T20:59:29.647Z,2.22
2023-05-10T21:01:57.227Z,2.75
2023-05-10T21:04:24.545Z,2.63
2023-05-10T21:06:51.197Z,3.38
2023-05-10T21:09:17.798Z,2.80
2023-05-10T21:11:44.476Z,3.25
2023-05-10T21:14:10.990Z,2.15
2023-05-10T21:16:37.464Z,3.25
2023-05-10T21:19:04.045Z,3.67
2023-05-10T21:21:30.978Z,4.65
2023-05-10T21:23:57.413Z,2.55
2023-05-10T21:26:23.936Z,2.60
2023-05-10T21:28:50.507Z,3.40
2023-05-10T21:31:16.975Z,2.70
2023-05-10T21:33:43.590Z,3.83
2023-05-10T21:36:10.106Z,3.88
2023-05-10T21:38:36.621Z,3.22
2023-05-10T21:41:07.758Z,2.95
2023-05-10T21:43:34.217Z,3.47
2023-05-10T21:46:01.010Z,4.38
2023-05-10T21:48:27.469Z,3.65
2023-05-10T21:50:53.913Z,5.30
2023-05-10T21:53:20.510Z,4.18
2023-05-10T21:55:48.124Z,4.57
2023-05-10T21:58:14.559Z,6.95
2023-05-10T22:00:41.066Z,4.72
2023-05-10T22:03:07.673Z,4.20
2023-05-10T22:05:34.344Z,3.92
2023-05-10T22:08:00.967Z,3.78
2023-05-10T22:10:27.584Z,6.50
2023-05-10T22:12:54.100Z,4.75
2023-05-10T22:15:20.543Z,4.63
2023-05-10T22:17:47.014Z,5.22
2023-05-10T22:20:13.721Z,5.18
2023-05-10T22:22:40.105Z,5.22
2023-05-10T22:25:07.429Z,5.43
2023-05-10T22:27:34.401Z,4.80
2023-05-10T22:30:01.478Z,4.82
2023-05-10T22:32:28.064Z,4.53
2023-05-10T22:34:54.578Z,6.28
2023-05-10T22:37:21.134Z,5.63
2023-05-10T22:39:48.999Z,5.75
2023-05-10T22:42:15.854Z,5.53
2023-05-10T22:44:43.090Z,5.32
2023-05-10T22:47:09.584Z,5.72
2023-05-10T22:49:36.080Z,5.18
2023-05-10T22:52:02.783Z,6.18
2023-05-10T22:54:29.245Z,4.78
2023-05-10T22:56:56.658Z,6.13
2023-05-10T22:59:23.647Z,6.07
2023-05-10T23:01:50.107Z,5.75
2023-05-10T23:04:16.557Z,7.13
2023-05-10T23:06:42.992Z,7.20
2023-05-10T23:09:09.757Z,6.93
2023-05-10T23:11:36.373Z,8.88
2023-05-10T23:14:03.024Z,7.50
2023-05-10T23:16:29.521Z,6.53
2023-05-10T23:18:56.187Z,6.70
2023-05-10T23:21:22.720Z,7.20
2023-05-10T23:23:49.319Z,8.38
2023-05-10T23:26:16.278Z,7.10
2023-05-10T23:28:42.764Z,6.32
2023-05-10T23:31:09.213Z,6.80
2023-05-10T23:33:35.638Z,6.85
2023-05-10T23:36:02.123Z,8.15
2023-05-10T23:38:28.883Z,7.95
2023-05-10T23:40:55.324Z,7.78
2023-05-10T23:43:21.820Z,7.60
2023-05-10T23:45:58.332Z,9.88
2023-05-10T23:48:25.169Z,9.18
2023-05-10T23:50:51.765Z,9.45
2023-05-10T23:53:18.354Z,9.43
2023-05-10T23:55:45.409Z,10.30
2023-05-10T23:58:12.431Z,11.88
